Oil City, PA (16301)

11:01 AM EDT on April 01, 2015 (GMT -0400)
North Side | | Change Station
CLOSE
Current Station
Personal Weather Station
Location: Oil City, PA
Elevation: 1040 ft
Nearby Weather Stations

Elev 1040 ft 41.44 °N, 79.71 °W | Updated 3 seconds ago

Overcast
Overcast
35.8 °F
Feels Like 36 °F
N
0.9
Wind Variable Wind from SW
Gusts 1.0 mph

Today
High -- | Low -- °F
--% Chance of Precip.
Yesterday
High -- | Low -- °F
Precip. -- in
7:02 AM 7:43 PM
Waxing Gibbous, 93% visible
Pressure 30.14 in
Visibility 10.0 miles
Clouds Overcast 3400 ft
Windchill 36 °F
Dew Point 32 °F
Humidity 84%
Rainfall 0.00 in
Snow Depth Not available.
UV 0.0 out of 12
Pollen .70 out of 12
Air Quality Not available.
Flu Activity Not available.
METAR KFKL 011455Z AUTO 27004KT 10SM OVC034 03/M03 A3014 RMK AO1 52020

More Conditions Fewer Conditions

Pressure 30.14 in
Visibility 10.0 miles
Clouds Overcast 3400 ft
Windchill 36 °F
Dew Point 32 °F
Humidity 84%
Rainfall 0.00 in
Snow Depth Not available.
UV 0.0 out of 12
Pollen .70 out of 12
Air Quality Not available.
Flu Activity Not available.
METAR KFKL 011455Z AUTO 27004KT 10SM OVC034 03/M03 A3014 RMK AO1 52020

More Conditions Fewer Conditions

10-Day Weather Forecast

Almanac

Astronomy

Apr. 01, 2015 Rise Set
Actual Time
Civil Twilight
Nautical Twilight
Astronomical Twilight
Moon
Length of Visible Light
Length of Day
Tomorrow will be .
, % of the Moon is Illuminated

Today's Extremes

State Highs State Lows

Community

WunderPhotos

Upload Photos

1,809,977 photos uploaded!

WunderBlogs® & News

Nearby

Air Quality

  Air Quality AQ Index Pollutant
Not available.

Snow Depth

Station Depth Elevation

Earthquake Activity

City Distance Mag. Time & Date
Minimum magnitude displayed is 2.5.

Coastal Water Temperatures

Place Temperature

Stations

Nearby Weather Stations

Station Location Temp. Windchill Dew Point Humidity Wind Precip. Elev Updated Type